Thargomindah, Australia
Current Conditions -  °F | °C
As of 1:00 AM on Friday 31 Oct 2014 (Local Time) from YBCV Reporting Station
Clear Clear  
Wind Chill: 81°   Ceiling: Unl
Heat Index: 81°   Visibility: 6mi
Dew Point: 41°   Wind: 8mph
Humidity: 24%   Direction: 40°NE
Pressure: 29.83"   Gusts: NA
Location:  28°S, 143.82°E
Report Text: YBCV 301500Z AUTO 04007KT 9999 // NCD 27/05 Q1010
Loading
Personal Weather Stations






























Interactive Weather Map New forecast layout! Learn more

10-Day Weather Forecast

Advertisements
Track Severe Weather on mobile